Willard, NM (87063)

2:02 PM MDT on April 26, 2015 (GMT -0600)
RAWS | | Change Station
CLOSE
Current Station
Personal Weather Station
Location: Mountainair, NM
Elevation: 6487 ft
Nearby Weather Stations

Elev 6487 ft 34.52 °N, 106.26 °W | Updated 57 minutes ago

Mostly Cloudy
Mostly Cloudy
45 °F
Feels Like 40 °F
N
9
Wind Variable Wind from WSW
Gusts 16.0 mph

Today
High -- | Low -- °F
--% Chance of Precip.
Yesterday
High -- | Low -- °F
Precip. -- in
6:19 AM 7:44 PM
First Quarter, 58% visible
Pressure 29.78 in
Visibility 10.0 miles
Clouds Scattered Clouds 2200 ft
Mostly Cloudy 2900 ft
Overcast 4100 ft
Windchill 40 °F
Dew Point 38 °F
Humidity 75%
Rainfall in
Snow Depth Not available.
UV 4 out of 12
Pollen 4.10 out of 12
Air Quality Not available.
Flu Activity Local Activity
METAR K0E0 261955Z AUTO 24008KT 10SM -TSRA SCT022 BKN029 OVC041 05/03 A2978 RMK AO2 LTG DSNT ALQS P0004 T00490031

More Conditions Fewer Conditions

Pressure 29.78 in
Visibility 10.0 miles
Clouds Scattered Clouds 2200 ft
Mostly Cloudy 2900 ft
Overcast 4100 ft
Windchill 40 °F
Dew Point 38 °F
Humidity 75%
Rainfall in
Snow Depth Not available.
UV 4 out of 12
Pollen 4.10 out of 12
Air Quality Not available.
Flu Activity Local Activity
METAR K0E0 261955Z AUTO 24008KT 10SM -TSRA SCT022 BKN029 OVC041 05/03 A2978 RMK AO2 LTG DSNT ALQS P0004 T00490031

More Conditions Fewer Conditions

The full scope of the disaster following a powerful 7.8-magnitude earthquake in Nepal may not come into view for days, but global charities are already sending emergency aid. Click to see how you can help.
Nowcast | as of 1:26 PM MDT on April 26, 2015

Through 300 PM MDT...favored regions for thunderstorms will continue from the middle and lower Rio Grande Valley to the east slopes of the Sandia and Manzano Mountains...east to near Clines Corners then southward to the northern Sacramento Mountains. Any of the better developed thunderstorms will be capable of brief bursts of small hail...brief moderate to heavy rainfall and wind gusts between 40 and 50 mph. Storms will move toward the northeast at generally 10 mph or less. High elevation snow will also remain focused near and above 8500 feet with impacts limited to the highest elevations.

×

10-Day Weather Forecast

Almanac

Astronomy

Apr. 26, 2015 Rise Set
Actual Time
Civil Twilight
Nautical Twilight
Astronomical Twilight
Moon
Length of Visible Light
Length of Day
Tomorrow will be .
, % of the Moon is Illuminated

Today's Extremes

State Highs State Lows

Community

WunderPhotos

Upload Photos

1,817,107 photos uploaded!

WunderBlogs® & News

Nearby

Air Quality

  Air Quality AQ Index Pollutant
Not available.

Snow Depth

Station Depth Elevation

Earthquake Activity

City Distance Mag. Time & Date
Minimum magnitude displayed is 2.5.

Coastal Water Temperatures

Place Temperature

Stations

Nearby Weather Stations

Station Location Temp. Windchill Dew Point Humidity Wind Precip. Elev Updated Type